sensor_id;sensor_type;location;lat;lon;timestamp;P1;durP1;ratioP1;P2;durP2;ratioP2
27438;SDS011;14887;51.252;7.470;2022-09-14T00:01:10;3.03;;;2.50;;
27438;SDS011;14887;51.252;7.470;2022-09-14T00:03:37;5.27;;;2.50;;
27438;SDS011;14887;51.252;7.470;2022-09-14T00:06:04;5.20;;;2.57;;
27438;SDS011;14887;51.252;7.470;2022-09-14T00:08:31;7.53;;;2.70;;
27438;SDS011;14887;51.252;7.470;2022-09-14T00:10:56;3.23;;;2.50;;
27438;SDS011;14887;51.252;7.470;2022-09-14T00:13:22;4.43;;;2.17;;
27438;SDS011;14887;51.252;7.470;2022-09-14T00:15:47;6.47;;;2.63;;
27438;SDS011;14887;51.252;7.470;2022-09-14T00:18:15;7.43;;;2.70;;
27438;SDS011;14887;51.252;7.470;2022-09-14T00:20:41;6.20;;;2.60;;
27438;SDS011;14887;51.252;7.470;2022-09-14T00:23:07;4.20;;;2.47;;
27438;SDS011;14887;51.252;7.470;2022-09-14T00:25:33;7.63;;;2.73;;
27438;SDS011;14887;51.252;7.470;2022-09-14T00:27:58;5.53;;;2.60;;
27438;SDS011;14887;51.252;7.470;2022-09-14T00:30:24;10.53;;;2.87;;
27438;SDS011;14887;51.252;7.470;2022-09-14T00:32:50;5.37;;;4.53;;
27438;SDS011;14887;51.252;7.470;2022-09-14T00:35:16;6.23;;;2.43;;
27438;SDS011;14887;51.252;7.470;2022-09-14T00:37:42;5.67;;;2.47;;
27438;SDS011;14887;51.252;7.470;2022-09-14T00:40:08;7.70;;;2.47;;
27438;SDS011;14887;51.252;7.470;2022-09-14T00:42:35;4.63;;;2.20;;
27438;SDS011;14887;51.252;7.470;2022-09-14T00:45:23;6.80;;;2.77;;
27438;SDS011;14887;51.252;7.470;2022-09-14T00:47:49;3.90;;;2.20;;
27438;SDS011;14887;51.252;7.470;2022-09-14T00:50:16;4.13;;;2.07;;
27438;SDS011;14887;51.252;7.470;2022-09-14T00:52:43;5.80;;;2.60;;
27438;SDS011;14887;51.252;7.470;2022-09-14T00:55:14;5.00;;;2.40;;
27438;SDS011;14887;51.252;7.470;2022-09-14T00:57:46;3.60;;;2.57;;
27438;SDS011;14887;51.252;7.470;2022-09-14T01:00:15;4.53;;;2.47;;
27438;SDS011;14887;51.252;7.470;2022-09-14T01:02:43;12.13;;;2.47;;
27438;SDS011;14887;51.252;7.470;2022-09-14T01:05:09;4.00;;;2.70;;
27438;SDS011;14887;51.252;7.470;2022-09-14T01:18:36;2.13;;;1.80;;
27438;SDS011;14887;51.252;7.470;2022-09-14T01:21:11;9.07;;;2.13;;
27438;SDS011;14887;51.252;7.470;2022-09-14T01:29:17;8.10;;;2.20;;
27438;SDS011;14887;51.252;7.470;2022-09-14T01:32:18;4.33;;;2.40;;
27438;SDS011;14887;51.252;7.470;2022-09-14T01:37:38;6.43;;;2.27;;
27438;SDS011;14887;51.252;7.470;2022-09-14T01:40:09;9.30;;;2.60;;
27438;SDS011;14887;51.252;7.470;2022-09-14T01:42:57;3.50;;;2.10;;
27438;SDS011;14887;51.252;7.470;2022-09-14T01:45:38;6.70;;;2.60;;
27438;SDS011;14887;51.252;7.470;2022-09-14T01:48:12;5.00;;;2.83;;
27438;SDS011;14887;51.252;7.470;2022-09-14T01:50:45;3.20;;;2.17;;
27438;SDS011;14887;51.252;7.470;2022-09-14T01:53:16;2.57;;;2.37;;
27438;SDS011;14887;51.252;7.470;2022-09-14T01:56:00;12.40;;;2.53;;
27438;SDS011;14887;51.252;7.470;2022-09-14T01:59:25;6.30;;;2.50;;
27438;SDS011;14887;51.252;7.470;2022-09-14T02:01:32;5.80;;;2.47;;
27438;SDS011;14887;51.252;7.470;2022-09-14T02:04:01;2.37;;;2.17;;
27438;SDS011;14887;51.252;7.470;2022-09-14T02:06:32;3.90;;;2.70;;
27438;SDS011;14887;51.252;7.470;2022-09-14T02:09:01;4.57;;;2.60;;
27438;SDS011;14887;51.252;7.470;2022-09-14T02:11:28;6.30;;;2.40;;
27438;SDS011;14887;51.252;7.470;2022-09-14T02:13:54;5.10;;;2.60;;
27438;SDS011;14887;51.252;7.470;2022-09-14T02:16:20;8.50;;;3.20;;
27438;SDS011;14887;51.252;7.470;2022-09-14T02:18:47;5.93;;;3.40;;
27438;SDS011;14887;51.252;7.470;2022-09-14T02:21:15;6.67;;;3.20;;
27438;SDS011;14887;51.252;7.470;2022-09-14T02:23:43;5.40;;;2.83;;
27438;SDS011;14887;51.252;7.470;2022-09-14T02:26:10;6.30;;;3.20;;
27438;SDS011;14887;51.252;7.470;2022-09-14T02:28:36;4.93;;;3.43;;
27438;SDS011;14887;51.252;7.470;2022-09-14T02:36:16;6.37;;;3.63;;
27438;SDS011;14887;51.252;7.470;2022-09-14T02:38:58;4.40;;;2.97;;
27438;SDS011;14887;51.252;7.470;2022-09-14T02:41:47;4.90;;;3.60;;
27438;SDS011;14887;51.252;7.470;2022-09-14T02:49:42;6.93;;;3.40;;
27438;SDS011;14887;51.252;7.470;2022-09-14T02:54:36;8.00;;;4.20;;
27438;SDS011;14887;51.252;7.470;2022-09-14T02:57:23;4.67;;;3.43;;
27438;SDS011;14887;51.252;7.470;2022-09-14T02:59:49;7.00;;;3.77;;
27438;SDS011;14887;51.252;7.470;2022-09-14T03:02:17;6.00;;;3.27;;
27438;SDS011;14887;51.252;7.470;2022-09-14T03:04:43;4.10;;;3.23;;
27438;SDS011;14887;51.252;7.470;2022-09-14T03:07:08;4.90;;;3.60;;
27438;SDS011;14887;51.252;7.470;2022-09-14T03:09:34;8.00;;;3.10;;
27438;SDS011;14887;51.252;7.470;2022-09-14T03:11:59;5.83;;;3.43;;
27438;SDS011;14887;51.252;7.470;2022-09-14T03:14:26;6.47;;;3.43;;
27438;SDS011;14887;51.252;7.470;2022-09-14T03:16:51;8.50;;;3.23;;
27438;SDS011;14887;51.252;7.470;2022-09-14T03:19:17;4.80;;;3.10;;
27438;SDS011;14887;51.252;7.470;2022-09-14T03:21:42;5.40;;;3.30;;
27438;SDS011;14887;51.252;7.470;2022-09-14T03:24:08;6.13;;;3.30;;
27438;SDS011;14887;51.252;7.470;2022-09-14T03:26:33;8.60;;;4.10;;
27438;SDS011;14887;51.252;7.470;2022-09-14T03:29:03;6.90;;;4.20;;
27438;SDS011;14887;51.252;7.470;2022-09-14T03:31:31;12.87;;;5.00;;
27438;SDS011;14887;51.252;7.470;2022-09-14T03:33:58;5.93;;;3.90;;
27438;SDS011;14887;51.252;7.470;2022-09-14T03:36:25;10.50;;;4.90;;
27438;SDS011;14887;51.252;7.470;2022-09-14T03:38:54;15.13;;;4.90;;
27438;SDS011;14887;51.252;7.470;2022-09-14T03:41:22;10.37;;;5.47;;
27438;SDS011;14887;51.252;7.470;2022-09-14T03:43:48;9.87;;;4.60;;
27438;SDS011;14887;51.252;7.470;2022-09-14T03:46:15;8.20;;;4.90;;
27438;SDS011;14887;51.252;7.470;2022-09-14T03:48:42;12.57;;;5.30;;
27438;SDS011;14887;51.252;7.470;2022-09-14T03:51:09;11.33;;;5.23;;
27438;SDS011;14887;51.252;7.470;2022-09-14T03:53:36;11.87;;;5.80;;
27438;SDS011;14887;51.252;7.470;2022-09-14T03:56:06;7.90;;;5.60;;
27438;SDS011;14887;51.252;7.470;2022-09-14T03:58:32;11.50;;;6.67;;
27438;SDS011;14887;51.252;7.470;2022-09-14T04:01:02;8.30;;;4.90;;
27438;SDS011;14887;51.252;7.470;2022-09-14T04:03:31;8.67;;;5.73;;
27438;SDS011;14887;51.252;7.470;2022-09-14T04:05:58;14.10;;;6.80;;
27438;SDS011;14887;51.252;7.470;2022-09-14T04:08:24;11.83;;;6.47;;
27438;SDS011;14887;51.252;7.470;2022-09-14T04:10:50;11.37;;;6.70;;
27438;SDS011;14887;51.252;7.470;2022-09-14T04:13:16;12.27;;;5.93;;
27438;SDS011;14887;51.252;7.470;2022-09-14T04:15:41;9.07;;;6.97;;
27438;SDS011;14887;51.252;7.470;2022-09-14T04:18:07;12.03;;;7.30;;
27438;SDS011;14887;51.252;7.470;2022-09-14T04:20:32;14.97;;;6.50;;
27438;SDS011;14887;51.252;7.470;2022-09-14T04:22:58;15.10;;;7.77;;
27438;SDS011;14887;51.252;7.470;2022-09-14T04:25:23;14.00;;;7.40;;
27438;SDS011;14887;51.252;7.470;2022-09-14T04:27:49;13.20;;;6.23;;
27438;SDS011;14887;51.252;7.470;2022-09-14T04:30:15;13.53;;;7.67;;
27438;SDS011;14887;51.252;7.470;2022-09-14T04:32:40;13.17;;;7.23;;
27438;SDS011;14887;51.252;7.470;2022-09-14T04:35:06;12.37;;;6.00;;
27438;SDS011;14887;51.252;7.470;2022-09-14T04:37:32;15.93;;;7.60;;
27438;SDS011;14887;51.252;7.470;2022-09-14T04:39:58;11.27;;;7.30;;
27438;SDS011;14887;51.252;7.470;2022-09-14T04:42:23;10.07;;;6.17;;
27438;SDS011;14887;51.252;7.470;2022-09-14T04:44:49;9.43;;;6.17;;
27438;SDS011;14887;51.252;7.470;2022-09-14T04:47:15;11.03;;;7.17;;
27438;SDS011;14887;51.252;7.470;2022-09-14T04:49:41;14.00;;;6.47;;
27438;SDS011;14887;51.252;7.470;2022-09-14T04:52:07;10.30;;;7.00;;
27438;SDS011;14887;51.252;7.470;2022-09-14T04:54:32;12.20;;;6.63;;
27438;SDS011;14887;51.252;7.470;2022-09-14T04:56:58;11.30;;;6.80;;
27438;SDS011;14887;51.252;7.470;2022-09-14T04:59:23;9.83;;;6.30;;
27438;SDS011;14887;51.252;7.470;2022-09-14T05:01:49;10.60;;;7.00;;
27438;SDS011;14887;51.252;7.470;2022-09-14T05:04:15;16.20;;;7.27;;
27438;SDS011;14887;51.252;7.470;2022-09-14T05:06:41;15.60;;;7.03;;
27438;SDS011;14887;51.252;7.470;2022-09-14T05:09:15;22.30;;;7.40;;
27438;SDS011;14887;51.252;7.470;2022-09-14T05:11:42;15.90;;;7.40;;
27438;SDS011;14887;51.252;7.470;2022-09-14T05:14:08;10.17;;;7.10;;
27438;SDS011;14887;51.252;7.470;2022-09-14T05:16:37;12.03;;;6.77;;
27438;SDS011;14887;51.252;7.470;2022-09-14T05:19:04;10.70;;;6.20;;
27438;SDS011;14887;51.252;7.470;2022-09-14T05:21:32;19.10;;;6.17;;
27438;SDS011;14887;51.252;7.470;2022-09-14T05:24:00;12.13;;;6.90;;
27438;SDS011;14887;51.252;7.470;2022-09-14T05:26:28;8.37;;;6.10;;
27438;SDS011;14887;51.252;7.470;2022-09-14T05:28:56;11.93;;;6.37;;
27438;SDS011;14887;51.252;7.470;2022-09-14T05:31:22;11.33;;;6.50;;
27438;SDS011;14887;51.252;7.470;2022-09-14T05:33:50;22.73;;;6.87;;
27438;SDS011;14887;51.252;7.470;2022-09-14T05:36:16;13.03;;;6.30;;
27438;SDS011;14887;51.252;7.470;2022-09-14T05:38:42;15.23;;;6.77;;
27438;SDS011;14887;51.252;7.470;2022-09-14T05:41:10;10.40;;;6.53;;
27438;SDS011;14887;51.252;7.470;2022-09-14T05:43:36;13.37;;;6.57;;
27438;SDS011;14887;51.252;7.470;2022-09-14T05:46:03;14.30;;;7.13;;
27438;SDS011;14887;51.252;7.470;2022-09-14T05:48:31;9.90;;;6.87;;
27438;SDS011;14887;51.252;7.470;2022-09-14T05:50:58;24.80;;;8.30;;
27438;SDS011;14887;51.252;7.470;2022-09-14T05:53:24;21.33;;;7.50;;
27438;SDS011;14887;51.252;7.470;2022-09-14T05:55:57;18.20;;;7.40;;
27438;SDS011;14887;51.252;7.470;2022-09-14T05:58:34;13.97;;;7.50;;
27438;SDS011;14887;51.252;7.470;2022-09-14T06:01:11;20.10;;;8.33;;
27438;SDS011;14887;51.252;7.470;2022-09-14T06:03:37;17.20;;;8.73;;
27438;SDS011;14887;51.252;7.470;2022-09-14T06:06:04;10.77;;;6.80;;
27438;SDS011;14887;51.252;7.470;2022-09-14T06:08:30;17.27;;;8.30;;
27438;SDS011;14887;51.252;7.470;2022-09-14T06:11:01;14.13;;;8.60;;
27438;SDS011;14887;51.252;7.470;2022-09-14T06:13:31;13.03;;;7.97;;
27438;SDS011;14887;51.252;7.470;2022-09-14T06:16:16;15.40;;;7.90;;
27438;SDS011;14887;51.252;7.470;2022-09-14T06:18:43;14.43;;;6.80;;
27438;SDS011;14887;51.252;7.470;2022-09-14T06:21:10;15.60;;;7.67;;
27438;SDS011;14887;51.252;7.470;2022-09-14T06:23:41;16.77;;;7.80;;
27438;SDS011;14887;51.252;7.470;2022-09-14T06:26:07;14.33;;;7.00;;
27438;SDS011;14887;51.252;7.470;2022-09-14T06:28:33;15.47;;;7.63;;
27438;SDS011;14887;51.252;7.470;2022-09-14T06:30:59;12.87;;;7.10;;
27438;SDS011;14887;51.252;7.470;2022-09-14T06:33:27;11.90;;;6.30;;
27438;SDS011;14887;51.252;7.470;2022-09-14T06:35:59;13.60;;;7.27;;
27438;SDS011;14887;51.252;7.470;2022-09-14T06:38:27;16.30;;;7.40;;
27438;SDS011;14887;51.252;7.470;2022-09-14T06:40:54;11.50;;;7.47;;
27438;SDS011;14887;51.252;7.470;2022-09-14T06:43:21;12.97;;;7.53;;
27438;SDS011;14887;51.252;7.470;2022-09-14T06:46:03;25.03;;;7.90;;
27438;SDS011;14887;51.252;7.470;2022-09-14T06:48:32;12.80;;;6.90;;
27438;SDS011;14887;51.252;7.470;2022-09-14T06:51:15;24.13;;;6.37;;
27438;SDS011;14887;51.252;7.470;2022-09-14T06:53:41;22.00;;;7.53;;
27438;SDS011;14887;51.252;7.470;2022-09-14T06:56:07;11.30;;;7.00;;
27438;SDS011;14887;51.252;7.470;2022-09-14T06:58:33;10.97;;;6.93;;
27438;SDS011;14887;51.252;7.470;2022-09-14T07:01:06;15.10;;;7.60;;
27438;SDS011;14887;51.252;7.470;2022-09-14T07:03:35;14.70;;;7.07;;
27438;SDS011;14887;51.252;7.470;2022-09-14T07:06:03;39.03;;;7.30;;
27438;SDS011;14887;51.252;7.470;2022-09-14T07:08:30;183.80;;;10.00;;
27438;SDS011;14887;51.252;7.470;2022-09-14T07:10:58;234.70;;;12.43;;
27438;SDS011;14887;51.252;7.470;2022-09-14T07:13:24;72.23;;;8.50;;
27438;SDS011;14887;51.252;7.470;2022-09-14T07:15:50;27.60;;;7.00;;
27438;SDS011;14887;51.252;7.470;2022-09-14T07:18:16;64.90;;;8.30;;
27438;SDS011;14887;51.252;7.470;2022-09-14T07:20:42;42.87;;;7.73;;
27438;SDS011;14887;51.252;7.470;2022-09-14T07:23:07;53.83;;;7.30;;
27438;SDS011;14887;51.252;7.470;2022-09-14T07:25:33;32.80;;;7.20;;
27438;SDS011;14887;51.252;7.470;2022-09-14T07:27:59;24.73;;;6.43;;
27438;SDS011;14887;51.252;7.470;2022-09-14T07:30:25;10.20;;;5.97;;
27438;SDS011;14887;51.252;7.470;2022-09-14T07:32:52;32.70;;;6.70;;
27438;SDS011;14887;51.252;7.470;2022-09-14T07:35:18;49.87;;;6.90;;
27438;SDS011;14887;51.252;7.470;2022-09-14T07:37:43;46.43;;;6.30;;
27438;SDS011;14887;51.252;7.470;2022-09-14T07:40:09;18.40;;;6.10;;
27438;SDS011;14887;51.252;7.470;2022-09-14T07:42:36;40.10;;;7.47;;
27438;SDS011;14887;51.252;7.470;2022-09-14T07:45:02;53.83;;;6.50;;
27438;SDS011;14887;51.252;7.470;2022-09-14T07:47:29;19.20;;;6.10;;
27438;SDS011;14887;51.252;7.470;2022-09-14T07:49:54;63.97;;;7.80;;
27438;SDS011;14887;51.252;7.470;2022-09-14T07:52:20;71.27;;;7.90;;
27438;SDS011;14887;51.252;7.470;2022-09-14T07:54:46;9.20;;;6.27;;
27438;SDS011;14887;51.252;7.470;2022-09-14T07:57:11;29.10;;;7.13;;
27438;SDS011;14887;51.252;7.470;2022-09-14T07:59:37;10.20;;;6.00;;
27438;SDS011;14887;51.252;7.470;2022-09-14T08:02:06;22.63;;;6.13;;
27438;SDS011;14887;51.252;7.470;2022-09-14T08:04:33;38.70;;;6.60;;
27438;SDS011;14887;51.252;7.470;2022-09-14T08:07:00;26.43;;;7.00;;
27438;SDS011;14887;51.252;7.470;2022-09-14T08:09:26;9.80;;;5.60;;
27438;SDS011;14887;51.252;7.470;2022-09-14T08:11:51;41.10;;;6.20;;
27438;SDS011;14887;51.252;7.470;2022-09-14T08:14:17;9.07;;;5.47;;
27438;SDS011;14887;51.252;7.470;2022-09-14T08:16:43;11.90;;;5.80;;
27438;SDS011;14887;51.252;7.470;2022-09-14T08:19:12;10.93;;;5.47;;
27438;SDS011;14887;51.252;7.470;2022-09-14T08:21:41;48.07;;;6.50;;
27438;SDS011;14887;51.252;7.470;2022-09-14T08:24:07;26.50;;;5.90;;
27438;SDS011;14887;51.252;7.470;2022-09-14T08:26:35;16.63;;;5.70;;
27438;SDS011;14887;51.252;7.470;2022-09-14T08:29:01;30.30;;;5.93;;
27438;SDS011;14887;51.252;7.470;2022-09-14T08:31:29;8.13;;;5.63;;
27438;SDS011;14887;51.252;7.470;2022-09-14T08:33:56;21.57;;;4.87;;
27438;SDS011;14887;51.252;7.470;2022-09-14T08:36:23;9.33;;;4.47;;
27438;SDS011;14887;51.252;7.470;2022-09-14T08:38:50;29.03;;;4.80;;
27438;SDS011;14887;51.252;7.470;2022-09-14T08:41:18;24.07;;;4.20;;
27438;SDS011;14887;51.252;7.470;2022-09-14T08:44:16;5.87;;;3.57;;
27438;SDS011;14887;51.252;7.470;2022-09-14T08:46:47;19.90;;;4.23;;
27438;SDS011;14887;51.252;7.470;2022-09-14T08:49:20;55.47;;;4.50;;
27438;SDS011;14887;51.252;7.470;2022-09-14T08:52:10;14.53;;;4.17;;
27438;SDS011;14887;51.252;7.470;2022-09-14T08:54:46;48.57;;;5.30;;
27438;SDS011;14887;51.252;7.470;2022-09-14T08:57:16;16.20;;;3.40;;
27438;SDS011;14887;51.252;7.470;2022-09-14T09:00:06;12.73;;;3.67;;
27438;SDS011;14887;51.252;7.470;2022-09-14T09:02:39;367.50;;;12.10;;
27438;SDS011;14887;51.252;7.470;2022-09-14T09:05:24;258.93;;;9.03;;
27438;SDS011;14887;51.252;7.470;2022-09-14T09:08:15;119.50;;;6.83;;
27438;SDS011;14887;51.252;7.470;2022-09-14T09:10:57;53.27;;;3.80;;
27438;SDS011;14887;51.252;7.470;2022-09-14T09:13:26;77.10;;;4.77;;
27438;SDS011;14887;51.252;7.470;2022-09-14T09:15:56;87.43;;;5.00;;
27438;SDS011;14887;51.252;7.470;2022-09-14T09:21:32;175.53;;;6.67;;
27438;SDS011;14887;51.252;7.470;2022-09-14T09:24:09;85.33;;;4.90;;
27438;SDS011;14887;51.252;7.470;2022-09-14T09:26:52;208.57;;;7.93;;
27438;SDS011;14887;51.252;7.470;2022-09-14T09:29:17;65.10;;;4.70;;
27438;SDS011;14887;51.252;7.470;2022-09-14T09:31:44;50.57;;;4.60;;
27438;SDS011;14887;51.252;7.470;2022-09-14T09:34:14;205.30;;;7.43;;
27438;SDS011;14887;51.252;7.470;2022-09-14T09:36:42;68.53;;;4.97;;
27438;SDS011;14887;51.252;7.470;2022-09-14T09:39:11;29.27;;;3.60;;
27438;SDS011;14887;51.252;7.470;2022-09-14T09:41:48;37.53;;;3.63;;
27438;SDS011;14887;51.252;7.470;2022-09-14T09:44:43;52.80;;;4.70;;
27438;SDS011;14887;51.252;7.470;2022-09-14T09:47:31;45.67;;;3.80;;
27438;SDS011;14887;51.252;7.470;2022-09-14T09:52:47;46.27;;;3.40;;
27438;SDS011;14887;51.252;7.470;2022-09-14T09:55:17;35.43;;;3.20;;
27438;SDS011;14887;51.252;7.470;2022-09-14T09:57:51;33.00;;;3.60;;
27438;SDS011;14887;51.252;7.470;2022-09-14T10:00:22;6.60;;;2.77;;
27438;SDS011;14887;51.252;7.470;2022-09-14T10:02:50;34.53;;;3.20;;
27438;SDS011;14887;51.252;7.470;2022-09-14T10:07:49;44.03;;;4.00;;
27438;SDS011;14887;51.252;7.470;2022-09-14T10:13:04;12.53;;;5.40;;
27438;SDS011;14887;51.252;7.470;2022-09-14T10:15:39;40.27;;;4.23;;
27438;SDS011;14887;51.252;7.470;2022-09-14T10:20:41;11.30;;;3.17;;
27438;SDS011;14887;51.252;7.470;2022-09-14T10:23:18;18.20;;;3.50;;
27438;SDS011;14887;51.252;7.470;2022-09-14T10:25:51;31.67;;;4.80;;
27438;SDS011;14887;51.252;7.470;2022-09-14T10:28:38;37.17;;;3.70;;
27438;SDS011;14887;51.252;7.470;2022-09-14T10:33:42;14.93;;;3.30;;
27438;SDS011;14887;51.252;7.470;2022-09-14T10:36:27;7.43;;;3.40;;
27438;SDS011;14887;51.252;7.470;2022-09-14T10:39:10;5.43;;;3.53;;
27438;SDS011;14887;51.252;7.470;2022-09-14T10:49:57;3.47;;;2.73;;
27438;SDS011;14887;51.252;7.470;2022-09-14T10:52:50;6.03;;;3.77;;
27438;SDS011;14887;51.252;7.470;2022-09-14T11:01:48;52.63;;;3.43;;
27438;SDS011;14887;51.252;7.470;2022-09-14T11:04:44;121.10;;;5.37;;
27438;SDS011;14887;51.252;7.470;2022-09-14T11:10:18;23.77;;;2.10;;
27438;SDS011;14887;51.252;7.470;2022-09-14T11:15:22;10.17;;;1.53;;
27438;SDS011;14887;51.252;7.470;2022-09-14T11:28:50;1.90;;;1.70;;
27438;SDS011;14887;51.252;7.470;2022-09-14T11:31:51;9.90;;;2.00;;
27438;SDS011;14887;51.252;7.470;2022-09-14T11:34:27;5.27;;;2.90;;
27438;SDS011;14887;51.252;7.470;2022-09-14T11:37:15;27.17;;;5.13;;
27438;SDS011;14887;51.252;7.470;2022-09-14T11:39:48;20.80;;;5.37;;
27438;SDS011;14887;51.252;7.470;2022-09-14T11:42:29;26.73;;;10.80;;
27438;SDS011;14887;51.252;7.470;2022-09-14T11:44:58;25.60;;;4.80;;
27438;SDS011;14887;51.252;7.470;2022-09-14T11:47:32;14.50;;;7.07;;
27438;SDS011;14887;51.252;7.470;2022-09-14T11:50:10;12.73;;;6.17;;
27438;SDS011;14887;51.252;7.470;2022-09-14T11:55:49;33.27;;;4.27;;
27438;SDS011;14887;51.252;7.470;2022-09-14T11:58:19;44.30;;;5.40;;
27438;SDS011;14887;51.252;7.470;2022-09-14T12:03:21;22.83;;;2.20;;
27438;SDS011;14887;51.252;7.470;2022-09-14T12:06:41;10.60;;;2.80;;
27438;SDS011;14887;51.252;7.470;2022-09-14T12:11:45;31.83;;;3.37;;
27438;SDS011;14887;51.252;7.470;2022-09-14T12:19:47;6.80;;;2.20;;
27438;SDS011;14887;51.252;7.470;2022-09-14T12:25:04;48.70;;;2.90;;
27438;SDS011;14887;51.252;7.470;2022-09-14T12:27:42;45.67;;;2.43;;
27438;SDS011;14887;51.252;7.470;2022-09-14T12:35:56;9.40;;;1.90;;
27438;SDS011;14887;51.252;7.470;2022-09-14T12:46:00;2.43;;;2.10;;
27438;SDS011;14887;51.252;7.470;2022-09-14T12:54:02;2.70;;;2.20;;
27438;SDS011;14887;51.252;7.470;2022-09-14T12:59:11;2.93;;;2.17;;
27438;SDS011;14887;51.252;7.470;2022-09-14T13:05:02;3.03;;;2.37;;
27438;SDS011;14887;51.252;7.470;2022-09-14T13:07:33;3.43;;;2.53;;
27438;SDS011;14887;51.252;7.470;2022-09-14T13:10:00;2.33;;;2.13;;
27438;SDS011;14887;51.252;7.470;2022-09-14T13:12:30;2.30;;;2.00;;
27438;SDS011;14887;51.252;7.470;2022-09-14T13:14:58;3.50;;;2.57;;
27438;SDS011;14887;51.252;7.470;2022-09-14T13:17:27;2.67;;;2.47;;
27438;SDS011;14887;51.252;7.470;2022-09-14T13:19:54;2.20;;;2.00;;
27438;SDS011;14887;51.252;7.470;2022-09-14T13:22:25;2.93;;;2.43;;
27438;SDS011;14887;51.252;7.470;2022-09-14T13:24:55;4.60;;;2.70;;
27438;SDS011;14887;51.252;7.470;2022-09-14T13:27:27;5.50;;;2.63;;
27438;SDS011;14887;51.252;7.470;2022-09-14T13:30:04;5.20;;;3.90;;
27438;SDS011;14887;51.252;7.470;2022-09-14T13:32:34;3.27;;;2.70;;
27438;SDS011;14887;51.252;7.470;2022-09-14T13:35:05;4.43;;;3.00;;
27438;SDS011;14887;51.252;7.470;2022-09-14T13:37:55;3.27;;;2.83;;
27438;SDS011;14887;51.252;7.470;2022-09-14T13:40:26;4.00;;;3.30;;
27438;SDS011;14887;51.252;7.470;2022-09-14T13:42:54;3.90;;;3.50;;
27438;SDS011;14887;51.252;7.470;2022-09-14T13:45:21;3.47;;;3.03;;
27438;SDS011;14887;51.252;7.470;2022-09-14T13:47:46;2.80;;;2.60;;
27438;SDS011;14887;51.252;7.470;2022-09-14T13:50:12;3.00;;;2.70;;
27438;SDS011;14887;51.252;7.470;2022-09-14T13:52:39;3.73;;;3.23;;
27438;SDS011;14887;51.252;7.470;2022-09-14T14:00:33;3.60;;;3.30;;
27438;SDS011;14887;51.252;7.470;2022-09-14T14:03:28;3.20;;;2.63;;
27438;SDS011;14887;51.252;7.470;2022-09-14T14:05:56;5.20;;;3.60;;
27438;SDS011;14887;51.252;7.470;2022-09-14T14:08:35;7.37;;;3.67;;
27438;SDS011;14887;51.252;7.470;2022-09-14T14:11:05;5.57;;;3.03;;
27438;SDS011;14887;51.252;7.470;2022-09-14T14:13:33;4.83;;;2.60;;
27438;SDS011;14887;51.252;7.470;2022-09-14T14:16:16;3.57;;;3.07;;
27438;SDS011;14887;51.252;7.470;2022-09-14T14:18:53;13.33;;;3.93;;
27438;SDS011;14887;51.252;7.470;2022-09-14T14:23:45;54.63;;;4.50;;
27438;SDS011;14887;51.252;7.470;2022-09-14T14:26:16;84.50;;;6.47;;
27438;SDS011;14887;51.252;7.470;2022-09-14T14:28:48;141.53;;;6.27;;
27438;SDS011;14887;51.252;7.470;2022-09-14T14:31:15;83.53;;;6.13;;
27438;SDS011;14887;51.252;7.470;2022-09-14T14:33:50;196.37;;;8.33;;
27438;SDS011;14887;51.252;7.470;2022-09-14T14:36:17;195.80;;;10.20;;
27438;SDS011;14887;51.252;7.470;2022-09-14T14:38:43;226.17;;;10.73;;
27438;SDS011;14887;51.252;7.470;2022-09-14T14:41:14;158.33;;;7.73;;
27438;SDS011;14887;51.252;7.470;2022-09-14T14:43:43;219.03;;;9.57;;
27438;SDS011;14887;51.252;7.470;2022-09-14T14:46:12;244.93;;;9.80;;
27438;SDS011;14887;51.252;7.470;2022-09-14T14:48:39;94.40;;;6.40;;
27438;SDS011;14887;51.252;7.470;2022-09-14T14:51:05;157.53;;;7.87;;
27438;SDS011;14887;51.252;7.470;2022-09-14T14:53:31;138.67;;;7.83;;
27438;SDS011;14887;51.252;7.470;2022-09-14T14:55:56;66.97;;;6.07;;
27438;SDS011;14887;51.252;7.470;2022-09-14T14:58:22;115.87;;;7.90;;
27438;SDS011;14887;51.252;7.470;2022-09-14T15:00:48;198.07;;;10.43;;
27438;SDS011;14887;51.252;7.470;2022-09-14T15:03:15;45.33;;;6.43;;
27438;SDS011;14887;51.252;7.470;2022-09-14T15:05:43;250.37;;;11.00;;
27438;SDS011;14887;51.252;7.470;2022-09-14T15:08:10;170.17;;;11.77;;
27438;SDS011;14887;51.252;7.470;2022-09-14T15:10:37;106.60;;;7.10;;
27438;SDS011;14887;51.252;7.470;2022-09-14T15:13:03;188.37;;;9.50;;
27438;SDS011;14887;51.252;7.470;2022-09-14T15:15:30;56.97;;;7.40;;
27438;SDS011;14887;51.252;7.470;2022-09-14T15:17:56;41.40;;;6.70;;
27438;SDS011;14887;51.252;7.470;2022-09-14T15:20:22;132.07;;;9.33;;
27438;SDS011;14887;51.252;7.470;2022-09-14T15:22:48;152.43;;;9.40;;
27438;SDS011;14887;51.252;7.470;2022-09-14T15:25:14;30.77;;;5.90;;
27438;SDS011;14887;51.252;7.470;2022-09-14T15:27:41;195.20;;;8.83;;
27438;SDS011;14887;51.252;7.470;2022-09-14T15:30:07;128.80;;;7.50;;
27438;SDS011;14887;51.252;7.470;2022-09-14T15:32:34;123.30;;;8.10;;
27438;SDS011;14887;51.252;7.470;2022-09-14T15:34:59;110.27;;;7.77;;
27438;SDS011;14887;51.252;7.470;2022-09-14T15:37:25;192.40;;;9.73;;
27438;SDS011;14887;51.252;7.470;2022-09-14T15:39:51;204.13;;;9.83;;
27438;SDS011;14887;51.252;7.470;2022-09-14T15:42:17;172.40;;;9.63;;
27438;SDS011;14887;51.252;7.470;2022-09-14T15:44:42;253.60;;;9.47;;
27438;SDS011;14887;51.252;7.470;2022-09-14T15:47:08;88.90;;;8.23;;
27438;SDS011;14887;51.252;7.470;2022-09-14T15:49:35;102.10;;;9.23;;
27438;SDS011;14887;51.252;7.470;2022-09-14T15:52:01;228.03;;;9.97;;
27438;SDS011;14887;51.252;7.470;2022-09-14T15:54:30;174.50;;;10.53;;
27438;SDS011;14887;51.252;7.470;2022-09-14T15:56:57;125.07;;;9.20;;
27438;SDS011;14887;51.252;7.470;2022-09-14T15:59:26;184.27;;;11.53;;
27438;SDS011;14887;51.252;7.470;2022-09-14T16:01:52;48.40;;;7.37;;
27438;SDS011;14887;51.252;7.470;2022-09-14T16:04:18;170.20;;;10.33;;
27438;SDS011;14887;51.252;7.470;2022-09-14T16:06:44;226.63;;;11.53;;
27438;SDS011;14887;51.252;7.470;2022-09-14T16:09:11;98.33;;;8.77;;
27438;SDS011;14887;51.252;7.470;2022-09-14T16:11:38;224.90;;;11.53;;
27438;SDS011;14887;51.252;7.470;2022-09-14T16:14:05;281.07;;;13.00;;
27438;SDS011;14887;51.252;7.470;2022-09-14T16:16:32;79.17;;;9.10;;
27438;SDS011;14887;51.252;7.470;2022-09-14T16:19:05;103.20;;;9.40;;
27438;SDS011;14887;51.252;7.470;2022-09-14T16:21:38;88.83;;;8.63;;
27438;SDS011;14887;51.252;7.470;2022-09-14T16:24:06;21.53;;;8.07;;
27438;SDS011;14887;51.252;7.470;2022-09-14T16:26:35;106.33;;;10.40;;
27438;SDS011;14887;51.252;7.470;2022-09-14T16:29:02;65.67;;;8.67;;
27438;SDS011;14887;51.252;7.470;2022-09-14T16:31:31;199.63;;;10.93;;
27438;SDS011;14887;51.252;7.470;2022-09-14T16:34:00;109.63;;;8.13;;
27438;SDS011;14887;51.252;7.470;2022-09-14T16:36:30;38.00;;;7.77;;
27438;SDS011;14887;51.252;7.470;2022-09-14T16:38:58;138.80;;;9.40;;
27438;SDS011;14887;51.252;7.470;2022-09-14T16:41:25;89.40;;;8.80;;
27438;SDS011;14887;51.252;7.470;2022-09-14T16:43:52;45.50;;;8.83;;
27438;SDS011;14887;51.252;7.470;2022-09-14T16:46:19;41.07;;;7.67;;
27438;SDS011;14887;51.252;7.470;2022-09-14T16:48:45;54.10;;;8.20;;
27438;SDS011;14887;51.252;7.470;2022-09-14T16:51:14;35.13;;;7.77;;
27438;SDS011;14887;51.252;7.470;2022-09-14T16:53:41;33.47;;;6.83;;
27438;SDS011;14887;51.252;7.470;2022-09-14T16:56:10;43.70;;;7.47;;
27438;SDS011;14887;51.252;7.470;2022-09-14T16:58:42;145.00;;;8.23;;
27438;SDS011;14887;51.252;7.470;2022-09-14T17:01:16;111.57;;;9.10;;